Crane Lake, MN

2:32 PM CDT on July 30, 2014 (GMT -0500)
Crane Lake (KCDD) Elev 1119 ft | 48.27 °N, 92.48 °W | Change Station
Active Advisory: Special Statement Active Notice: Public Information Statement

Current weather conditions updated 19 minutes ago

Mostly Cloudy
Mostly Cloudy
72 °F
Feels Like 72 °F
N
12
Wind Variable Wind from NW

Today is forecast to be nearly the same temperature as yesterday.

Today
High -- | Low -- °F
--% Chance of Precip.
Yesterday
High -- | Low -- °F
Precip. -- in
5:42 AM 8:49 PM
Waxing Crescent, 13% visible
Pressure 30.00 in
Visibility 10.0 miles
Clouds Scattered Clouds 5000 ft
Scattered Clouds 7000 ft
Mostly Cloudy 8000 ft
Dew Point 57 °F
Humidity 60%
Rainfall 0.00 in
Snow Depth Not available.
UV 5 out of 12
Pollen 6.70 out of 12
Air Quality Not available.
Flu Activity Not available.
METAR KCDD 301913Z AUTO 32010KT 10SM SCT050 SCT070 BKN080 22/14 A3000 RMK AO2

More Conditions Fewer Conditions

Pressure 30.00 in
Visibility 10.0 miles
Clouds Scattered Clouds 5000 ft
Scattered Clouds 7000 ft
Mostly Cloudy 8000 ft
Dew Point 57 °F
Humidity 60%
Rainfall 0.00 in
Snow Depth Not available.
UV 5 out of 12
Pollen 6.70 out of 12
Air Quality Not available.
Flu Activity Not available.
METAR KCDD 301913Z AUTO 32010KT 10SM SCT050 SCT070 BKN080 22/14 A3000 RMK AO2

More Conditions Fewer Conditions

10-Day Weather Forecast

Almanac

Astronomy

Jul. 30, 2014 Rise Set
Actual Time 5:42 AM CDT 8:49 PM CDT
Civil Twilight 5:05 AM CDT 9:26 PM CDT
Nautical Twilight 4:17 AM CDT 10:13 PM CDT
Astronomical Twilight 3:17 AM CDT 11:13 PM CDT
Moon 9:35 AM CDT 10:08 PM CDT
Length of Visible Light 16h 20m
Length of Day
15h 06m
Tomorrow will be 2m 41s shorter.
Waxing Crescent, 13% of the Moon is Illuminated
Today
Waxing Crescent
Aug 3
First Quarter
Aug 10
Full
Aug 17
Last Quarter
Aug 25
New

Today's Extremes

State Highs State Lows

Community

WunderPhotos

Upload Photos

1,739,166 photos uploaded!

WunderBlogs® & News

Nearby

Snow Depth

Station Depth Elevation
No new snow has been reported.

Earthquake Activity

City Distance Mag. Time & Date
No recent earthquake activity has been reported nearby.
Minimum magnitude displayed is 2.5.

Coastal Water Temperatures

Place Temperature
No Stations Reporting

Nearby Weather Stations

Station Location Temp. Heat Index Dew Point Humidity Wind Precip. Elev Updated Type
RAWS MEANDER MN, Crane Lake, MN 75 °F 77 °F 60 °F 60% WNW  at  5 mph 0.00 in / hr 1368 ft 1:04 PM CDT MADIS

Show More Stations Show Fewer Stations